sensor_id;sensor_type;location;lat;lon;timestamp;temperature;humidity
23116;DHT22;11727;52.134;5.052;2023-07-24T00:02:03;18.90;99.90
23116;DHT22;11727;52.134;5.052;2023-07-24T00:04:33;18.80;99.90
23116;DHT22;11727;52.134;5.052;2023-07-24T00:07:00;18.90;99.90
23116;DHT22;11727;52.134;5.052;2023-07-24T00:09:25;18.90;99.90
23116;DHT22;11727;52.134;5.052;2023-07-24T00:11:51;18.80;99.90
23116;DHT22;11727;52.134;5.052;2023-07-24T00:14:17;18.90;99.90
23116;DHT22;11727;52.134;5.052;2023-07-24T00:16:43;18.90;99.90
23116;DHT22;11727;52.134;5.052;2023-07-24T00:19:08;18.80;99.90
23116;DHT22;11727;52.134;5.052;2023-07-24T00:21:34;18.80;99.90
23116;DHT22;11727;52.134;5.052;2023-07-24T00:24:00;18.80;99.90
23116;DHT22;11727;52.134;5.052;2023-07-24T00:26:25;18.80;99.90
23116;DHT22;11727;52.134;5.052;2023-07-24T00:28:51;18.80;99.90
23116;DHT22;11727;52.134;5.052;2023-07-24T00:31:16;18.80;99.90
23116;DHT22;11727;52.134;5.052;2023-07-24T00:33:42;18.80;99.90
23116;DHT22;11727;52.134;5.052;2023-07-24T00:36:08;18.80;99.90
23116;DHT22;11727;52.134;5.052;2023-07-24T00:38:33;18.70;99.90
23116;DHT22;11727;52.134;5.052;2023-07-24T00:40:59;18.70;99.90
23116;DHT22;11727;52.134;5.052;2023-07-24T00:43:25;18.70;99.90
23116;DHT22;11727;52.134;5.052;2023-07-24T00:45:50;18.70;99.90
23116;DHT22;11727;52.134;5.052;2023-07-24T00:48:16;18.70;99.90
23116;DHT22;11727;52.134;5.052;2023-07-24T00:50:43;18.70;99.90
23116;DHT22;11727;52.134;5.052;2023-07-24T00:53:11;18.60;99.90
23116;DHT22;11727;52.134;5.052;2023-07-24T00:55:38;18.70;99.90
23116;DHT22;11727;52.134;5.052;2023-07-24T00:58:03;18.70;99.90
23116;DHT22;11727;52.134;5.052;2023-07-24T01:00:30;18.70;99.90
23116;DHT22;11727;52.134;5.052;2023-07-24T01:02:56;18.60;99.90
23116;DHT22;11727;52.134;5.052;2023-07-24T01:05:25;18.60;99.90
23116;DHT22;11727;52.134;5.052;2023-07-24T01:07:52;18.60;99.90
23116;DHT22;11727;52.134;5.052;2023-07-24T01:10:17;18.60;99.90
23116;DHT22;11727;52.134;5.052;2023-07-24T01:13:23;18.60;99.90
23116;DHT22;11727;52.134;5.052;2023-07-24T01:15:55;18.60;99.90
23116;DHT22;11727;52.134;5.052;2023-07-24T01:18:23;18.60;99.90
23116;DHT22;11727;52.134;5.052;2023-07-24T01:20:56;18.60;99.90
23116;DHT22;11727;52.134;5.052;2023-07-24T01:23:55;18.60;99.90
23116;DHT22;11727;52.134;5.052;2023-07-24T01:26:21;18.50;99.90
23116;DHT22;11727;52.134;5.052;2023-07-24T01:28:49;18.50;99.90
23116;DHT22;11727;52.134;5.052;2023-07-24T01:31:15;18.50;99.90
23116;DHT22;11727;52.134;5.052;2023-07-24T01:33:45;18.50;99.90
23116;DHT22;11727;52.134;5.052;2023-07-24T01:36:11;18.50;99.90
23116;DHT22;11727;52.134;5.052;2023-07-24T01:38:38;18.50;99.90
23116;DHT22;11727;52.134;5.052;2023-07-24T01:41:04;18.50;99.90
23116;DHT22;11727;52.134;5.052;2023-07-24T01:43:30;18.40;99.90
23116;DHT22;11727;52.134;5.052;2023-07-24T01:45:58;18.50;99.90
23116;DHT22;11727;52.134;5.052;2023-07-24T01:48:23;18.50;99.90
23116;DHT22;11727;52.134;5.052;2023-07-24T01:50:49;18.50;99.90
23116;DHT22;11727;52.134;5.052;2023-07-24T01:53:15;18.40;99.90
23116;DHT22;11727;52.134;5.052;2023-07-24T01:55:41;18.50;99.90
23116;DHT22;11727;52.134;5.052;2023-07-24T01:58:07;18.40;99.90
23116;DHT22;11727;52.134;5.052;2023-07-24T02:00:32;18.50;99.90
23116;DHT22;11727;52.134;5.052;2023-07-24T02:02:58;18.50;99.90
23116;DHT22;11727;52.134;5.052;2023-07-24T02:05:25;18.50;99.90
23116;DHT22;11727;52.134;5.052;2023-07-24T02:07:51;18.50;99.90
23116;DHT22;11727;52.134;5.052;2023-07-24T02:10:16;18.40;99.90
23116;DHT22;11727;52.134;5.052;2023-07-24T02:12:42;18.50;99.90
23116;DHT22;11727;52.134;5.052;2023-07-24T02:15:08;18.50;99.90
23116;DHT22;11727;52.134;5.052;2023-07-24T02:17:33;18.40;99.90
23116;DHT22;11727;52.134;5.052;2023-07-24T02:19:59;18.40;99.90
23116;DHT22;11727;52.134;5.052;2023-07-24T02:22:25;18.50;99.90
23116;DHT22;11727;52.134;5.052;2023-07-24T02:24:51;18.50;99.90
23116;DHT22;11727;52.134;5.052;2023-07-24T02:27:31;18.50;99.90
23116;DHT22;11727;52.134;5.052;2023-07-24T02:29:57;18.50;99.90
23116;DHT22;11727;52.134;5.052;2023-07-24T02:32:23;18.40;99.90
23116;DHT22;11727;52.134;5.052;2023-07-24T02:34:50;18.50;99.90
23116;DHT22;11727;52.134;5.052;2023-07-24T02:37:15;18.50;99.90
23116;DHT22;11727;52.134;5.052;2023-07-24T02:39:41;18.50;99.90
23116;DHT22;11727;52.134;5.052;2023-07-24T02:42:06;18.50;99.90
23116;DHT22;11727;52.134;5.052;2023-07-24T02:44:34;18.50;99.90
23116;DHT22;11727;52.134;5.052;2023-07-24T02:46:59;18.50;99.90
23116;DHT22;11727;52.134;5.052;2023-07-24T02:49:25;18.40;99.90
23116;DHT22;11727;52.134;5.052;2023-07-24T02:51:51;18.50;99.90
23116;DHT22;11727;52.134;5.052;2023-07-24T02:54:16;18.50;99.90
23116;DHT22;11727;52.134;5.052;2023-07-24T02:56:42;18.50;99.90
23116;DHT22;11727;52.134;5.052;2023-07-24T02:59:07;18.40;99.90
23116;DHT22;11727;52.134;5.052;2023-07-24T03:01:33;18.40;99.90
23116;DHT22;11727;52.134;5.052;2023-07-24T03:03:58;18.40;99.90
23116;DHT22;11727;52.134;5.052;2023-07-24T03:06:25;18.40;99.90
23116;DHT22;11727;52.134;5.052;2023-07-24T03:08:51;18.40;99.90
23116;DHT22;11727;52.134;5.052;2023-07-24T03:11:16;18.40;99.90
23116;DHT22;11727;52.134;5.052;2023-07-24T03:13:42;18.40;99.90
23116;DHT22;11727;52.134;5.052;2023-07-24T03:16:10;18.40;99.90
23116;DHT22;11727;52.134;5.052;2023-07-24T03:18:35;18.40;99.90
23116;DHT22;11727;52.134;5.052;2023-07-24T03:21:01;18.40;99.90
23116;DHT22;11727;52.134;5.052;2023-07-24T03:23:26;18.40;99.90
23116;DHT22;11727;52.134;5.052;2023-07-24T03:25:52;18.40;99.90
23116;DHT22;11727;52.134;5.052;2023-07-24T03:28:18;18.40;99.90
23116;DHT22;11727;52.134;5.052;2023-07-24T03:30:43;18.40;99.90
23116;DHT22;11727;52.134;5.052;2023-07-24T03:33:09;18.30;99.90
23116;DHT22;11727;52.134;5.052;2023-07-24T03:35:34;18.30;99.90
23116;DHT22;11727;52.134;5.052;2023-07-24T03:38:00;18.30;99.90
23116;DHT22;11727;52.134;5.052;2023-07-24T03:40:26;18.30;99.90
23116;DHT22;11727;52.134;5.052;2023-07-24T03:42:51;18.30;99.90
23116;DHT22;11727;52.134;5.052;2023-07-24T03:45:17;18.20;99.90
23116;DHT22;11727;52.134;5.052;2023-07-24T03:47:43;18.20;99.90
23116;DHT22;11727;52.134;5.052;2023-07-24T03:50:08;18.20;99.90
23116;DHT22;11727;52.134;5.052;2023-07-24T03:52:34;18.20;99.90
23116;DHT22;11727;52.134;5.052;2023-07-24T03:55:00;18.10;99.90
23116;DHT22;11727;52.134;5.052;2023-07-24T03:57:25;18.10;99.90
23116;DHT22;11727;52.134;5.052;2023-07-24T03:59:51;18.10;99.90
23116;DHT22;11727;52.134;5.052;2023-07-24T04:02:16;18.10;99.90
23116;DHT22;11727;52.134;5.052;2023-07-24T04:04:42;18.10;99.90
23116;DHT22;11727;52.134;5.052;2023-07-24T04:07:08;18.00;99.90
23116;DHT22;11727;52.134;5.052;2023-07-24T04:09:33;18.00;99.90
23116;DHT22;11727;52.134;5.052;2023-07-24T04:11:59;18.00;99.90
23116;DHT22;11727;52.134;5.052;2023-07-24T04:14:24;18.00;99.90
23116;DHT22;11727;52.134;5.052;2023-07-24T04:16:50;18.00;99.90
23116;DHT22;11727;52.134;5.052;2023-07-24T04:19:16;17.90;99.90
23116;DHT22;11727;52.134;5.052;2023-07-24T04:21:41;17.90;99.90
23116;DHT22;11727;52.134;5.052;2023-07-24T04:24:07;17.90;99.90
23116;DHT22;11727;52.134;5.052;2023-07-24T04:26:32;17.90;99.90
23116;DHT22;11727;52.134;5.052;2023-07-24T04:28:58;17.90;99.90
23116;DHT22;11727;52.134;5.052;2023-07-24T04:31:23;18.00;99.90
23116;DHT22;11727;52.134;5.052;2023-07-24T04:33:49;18.00;99.90
23116;DHT22;11727;52.134;5.052;2023-07-24T04:36:15;18.00;99.90
23116;DHT22;11727;52.134;5.052;2023-07-24T04:38:40;18.00;99.90
23116;DHT22;11727;52.134;5.052;2023-07-24T04:41:06;18.00;99.90
23116;DHT22;11727;52.134;5.052;2023-07-24T04:43:31;18.00;99.90
23116;DHT22;11727;52.134;5.052;2023-07-24T04:45:57;18.00;99.90
23116;DHT22;11727;52.134;5.052;2023-07-24T04:48:23;18.00;99.90
23116;DHT22;11727;52.134;5.052;2023-07-24T04:50:54;18.00;99.90
23116;DHT22;11727;52.134;5.052;2023-07-24T04:53:21;18.00;99.90
23116;DHT22;11727;52.134;5.052;2023-07-24T04:55:47;18.00;99.90
23116;DHT22;11727;52.134;5.052;2023-07-24T04:58:12;18.00;99.90
23116;DHT22;11727;52.134;5.052;2023-07-24T05:00:38;18.00;99.90
23116;DHT22;11727;52.134;5.052;2023-07-24T05:03:04;17.90;99.90
23116;DHT22;11727;52.134;5.052;2023-07-24T05:05:30;17.90;99.90
23116;DHT22;11727;52.134;5.052;2023-07-24T05:07:57;17.90;99.90
23116;DHT22;11727;52.134;5.052;2023-07-24T05:10:22;17.90;99.90
23116;DHT22;11727;52.134;5.052;2023-07-24T05:12:48;17.90;99.90
23116;DHT22;11727;52.134;5.052;2023-07-24T05:15:13;17.90;99.90
23116;DHT22;11727;52.134;5.052;2023-07-24T05:17:42;17.90;99.90
23116;DHT22;11727;52.134;5.052;2023-07-24T05:20:09;17.90;99.90
23116;DHT22;11727;52.134;5.052;2023-07-24T05:22:34;18.00;99.90
23116;DHT22;11727;52.134;5.052;2023-07-24T05:25:00;17.90;99.90
23116;DHT22;11727;52.134;5.052;2023-07-24T05:27:26;17.90;99.90
23116;DHT22;11727;52.134;5.052;2023-07-24T05:29:51;17.90;99.90
23116;DHT22;11727;52.134;5.052;2023-07-24T05:32:17;18.00;99.90
23116;DHT22;11727;52.134;5.052;2023-07-24T05:34:43;18.00;99.90
23116;DHT22;11727;52.134;5.052;2023-07-24T05:37:08;18.10;99.90
23116;DHT22;11727;52.134;5.052;2023-07-24T05:39:34;18.10;99.90
23116;DHT22;11727;52.134;5.052;2023-07-24T05:41:59;18.20;99.90
23116;DHT22;11727;52.134;5.052;2023-07-24T05:44:25;18.20;99.90
23116;DHT22;11727;52.134;5.052;2023-07-24T05:46:50;18.20;99.90
23116;DHT22;11727;52.134;5.052;2023-07-24T05:49:16;18.20;99.90
23116;DHT22;11727;52.134;5.052;2023-07-24T05:51:42;18.30;99.90
23116;DHT22;11727;52.134;5.052;2023-07-24T05:54:07;18.30;99.90
23116;DHT22;11727;52.134;5.052;2023-07-24T05:56:33;18.30;99.90
23116;DHT22;11727;52.134;5.052;2023-07-24T05:58:58;18.30;99.90
23116;DHT22;11727;52.134;5.052;2023-07-24T06:01:24;18.30;99.90
23116;DHT22;11727;52.134;5.052;2023-07-24T06:03:49;18.40;99.90
23116;DHT22;11727;52.134;5.052;2023-07-24T06:06:15;18.40;99.90
23116;DHT22;11727;52.134;5.052;2023-07-24T06:08:41;18.40;99.90
23116;DHT22;11727;52.134;5.052;2023-07-24T06:11:06;18.40;99.90
23116;DHT22;11727;52.134;5.052;2023-07-24T06:13:32;18.30;99.90
23116;DHT22;11727;52.134;5.052;2023-07-24T06:15:57;18.40;99.90
23116;DHT22;11727;52.134;5.052;2023-07-24T06:18:23;18.30;99.90
23116;DHT22;11727;52.134;5.052;2023-07-24T06:20:53;18.40;99.90
23116;DHT22;11727;52.134;5.052;2023-07-24T06:23:19;18.40;99.90
23116;DHT22;11727;52.134;5.052;2023-07-24T06:25:45;18.40;99.90
23116;DHT22;11727;52.134;5.052;2023-07-24T06:28:10;18.50;99.90
23116;DHT22;11727;52.134;5.052;2023-07-24T06:30:36;18.50;99.90
23116;DHT22;11727;52.134;5.052;2023-07-24T06:33:03;18.60;99.90
23116;DHT22;11727;52.134;5.052;2023-07-24T06:35:29;18.70;99.90
23116;DHT22;11727;52.134;5.052;2023-07-24T06:37:54;18.80;99.90
23116;DHT22;11727;52.134;5.052;2023-07-24T06:40:20;18.90;99.90
23116;DHT22;11727;52.134;5.052;2023-07-24T06:42:46;18.90;99.90
23116;DHT22;11727;52.134;5.052;2023-07-24T06:45:11;18.90;99.90
23116;DHT22;11727;52.134;5.052;2023-07-24T06:47:37;19.00;99.90
23116;DHT22;11727;52.134;5.052;2023-07-24T06:50:03;19.10;99.90
23116;DHT22;11727;52.134;5.052;2023-07-24T06:52:30;19.10;99.90
23116;DHT22;11727;52.134;5.052;2023-07-24T06:54:56;19.10;99.90
23116;DHT22;11727;52.134;5.052;2023-07-24T06:57:23;19.10;99.90
23116;DHT22;11727;52.134;5.052;2023-07-24T06:59:49;19.20;99.90
23116;DHT22;11727;52.134;5.052;2023-07-24T07:02:15;19.20;99.90
23116;DHT22;11727;52.134;5.052;2023-07-24T07:04:40;19.20;99.90
23116;DHT22;11727;52.134;5.052;2023-07-24T07:07:06;19.20;99.90
23116;DHT22;11727;52.134;5.052;2023-07-24T07:09:32;19.20;99.90
23116;DHT22;11727;52.134;5.052;2023-07-24T07:11:58;19.20;99.90
23116;DHT22;11727;52.134;5.052;2023-07-24T07:14:24;19.30;99.90
23116;DHT22;11727;52.134;5.052;2023-07-24T07:16:49;19.50;99.90
23116;DHT22;11727;52.134;5.052;2023-07-24T07:19:15;19.60;99.90
23116;DHT22;11727;52.134;5.052;2023-07-24T07:21:40;19.70;99.90
23116;DHT22;11727;52.134;5.052;2023-07-24T07:24:06;19.90;99.90
23116;DHT22;11727;52.134;5.052;2023-07-24T07:26:32;20.00;99.90
23116;DHT22;11727;52.134;5.052;2023-07-24T07:28:58;20.10;99.90
23116;DHT22;11727;52.134;5.052;2023-07-24T07:31:24;20.10;99.90
23116;DHT22;11727;52.134;5.052;2023-07-24T07:33:50;19.90;99.90
23116;DHT22;11727;52.134;5.052;2023-07-24T07:36:15;19.90;99.90
23116;DHT22;11727;52.134;5.052;2023-07-24T07:38:43;19.80;99.90
23116;DHT22;11727;52.134;5.052;2023-07-24T07:41:08;19.70;99.90
23116;DHT22;11727;52.134;5.052;2023-07-24T07:43:34;19.70;99.90
23116;DHT22;11727;52.134;5.052;2023-07-24T07:46:02;19.80;99.90
23116;DHT22;11727;52.134;5.052;2023-07-24T07:48:27;20.00;99.90
23116;DHT22;11727;52.134;5.052;2023-07-24T07:50:53;20.10;99.90
23116;DHT22;11727;52.134;5.052;2023-07-24T07:53:18;20.30;99.90
23116;DHT22;11727;52.134;5.052;2023-07-24T07:55:44;20.40;99.90
23116;DHT22;11727;52.134;5.052;2023-07-24T07:58:10;20.50;99.90
23116;DHT22;11727;52.134;5.052;2023-07-24T08:00:35;20.50;99.90
23116;DHT22;11727;52.134;5.052;2023-07-24T08:03:01;20.60;99.90
23116;DHT22;11727;52.134;5.052;2023-07-24T08:05:27;20.60;99.90
23116;DHT22;11727;52.134;5.052;2023-07-24T08:07:53;20.50;99.90
23116;DHT22;11727;52.134;5.052;2023-07-24T08:10:18;20.50;99.90
23116;DHT22;11727;52.134;5.052;2023-07-24T08:12:44;20.50;99.90
23116;DHT22;11727;52.134;5.052;2023-07-24T08:15:10;20.60;99.90
23116;DHT22;11727;52.134;5.052;2023-07-24T08:17:36;20.70;99.90
23116;DHT22;11727;52.134;5.052;2023-07-24T08:20:01;20.70;99.90
23116;DHT22;11727;52.134;5.052;2023-07-24T08:22:27;20.60;99.90
23116;DHT22;11727;52.134;5.052;2023-07-24T08:24:52;20.50;99.90
23116;DHT22;11727;52.134;5.052;2023-07-24T08:27:18;20.40;99.90
23116;DHT22;11727;52.134;5.052;2023-07-24T08:29:44;20.50;99.90
23116;DHT22;11727;52.134;5.052;2023-07-24T08:32:09;20.50;99.90
23116;DHT22;11727;52.134;5.052;2023-07-24T08:34:38;20.60;99.90
23116;DHT22;11727;52.134;5.052;2023-07-24T08:37:10;20.70;99.90
23116;DHT22;11727;52.134;5.052;2023-07-24T08:39:36;20.90;99.90
23116;DHT22;11727;52.134;5.052;2023-07-24T08:42:11;21.10;99.90
23116;DHT22;11727;52.134;5.052;2023-07-24T08:44:37;21.20;99.90
23116;DHT22;11727;52.134;5.052;2023-07-24T08:47:03;21.30;99.90
23116;DHT22;11727;52.134;5.052;2023-07-24T08:49:30;21.30;99.90
23116;DHT22;11727;52.134;5.052;2023-07-24T08:51:59;21.20;99.90
23116;DHT22;11727;52.134;5.052;2023-07-24T08:54:26;21.10;99.90
23116;DHT22;11727;52.134;5.052;2023-07-24T08:56:53;21.00;99.90
23116;DHT22;11727;52.134;5.052;2023-07-24T08:59:21;20.90;99.90
23116;DHT22;11727;52.134;5.052;2023-07-24T09:01:46;20.80;99.90
23116;DHT22;11727;52.134;5.052;2023-07-24T09:04:12;20.60;99.90
23116;DHT22;11727;52.134;5.052;2023-07-24T09:06:38;20.50;99.90
23116;DHT22;11727;52.134;5.052;2023-07-24T09:09:13;20.40;99.90
23116;DHT22;11727;52.134;5.052;2023-07-24T09:11:46;20.30;99.90
23116;DHT22;11727;52.134;5.052;2023-07-24T09:14:20;20.30;99.90
23116;DHT22;11727;52.134;5.052;2023-07-24T09:16:46;20.30;99.90
23116;DHT22;11727;52.134;5.052;2023-07-24T09:19:19;20.30;99.90
23116;DHT22;11727;52.134;5.052;2023-07-24T09:21:45;20.40;99.90
23116;DHT22;11727;52.134;5.052;2023-07-24T09:24:14;20.30;99.90
23116;DHT22;11727;52.134;5.052;2023-07-24T09:26:51;20.40;99.90
23116;DHT22;11727;52.134;5.052;2023-07-24T09:29:18;20.30;99.90
23116;DHT22;11727;52.134;5.052;2023-07-24T09:31:44;20.20;99.90
23116;DHT22;11727;52.134;5.052;2023-07-24T09:34:17;20.30;99.90
23116;DHT22;11727;52.134;5.052;2023-07-24T09:36:44;20.30;99.90
23116;DHT22;11727;52.134;5.052;2023-07-24T09:39:10;20.20;99.90
23116;DHT22;11727;52.134;5.052;2023-07-24T09:41:38;20.20;99.90
23116;DHT22;11727;52.134;5.052;2023-07-24T09:44:04;20.20;99.90
23116;DHT22;11727;52.134;5.052;2023-07-24T09:46:30;20.20;99.90
23116;DHT22;11727;52.134;5.052;2023-07-24T09:48:57;20.20;99.90
23116;DHT22;11727;52.134;5.052;2023-07-24T09:51:23;20.30;99.90
23116;DHT22;11727;52.134;5.052;2023-07-24T09:54:22;20.30;99.90
23116;DHT22;11727;52.134;5.052;2023-07-24T09:56:50;20.40;99.90
23116;DHT22;11727;52.134;5.052;2023-07-24T09:59:16;20.50;99.90
23116;DHT22;11727;52.134;5.052;2023-07-24T10:01:43;20.80;99.90
23116;DHT22;11727;52.134;5.052;2023-07-24T10:04:09;21.00;99.90
23116;DHT22;11727;52.134;5.052;2023-07-24T10:06:35;21.20;99.90
23116;DHT22;11727;52.134;5.052;2023-07-24T10:09:01;21.30;99.90
23116;DHT22;11727;52.134;5.052;2023-07-24T10:11:28;21.40;99.90
23116;DHT22;11727;52.134;5.052;2023-07-24T10:13:53;21.40;99.90
23116;DHT22;11727;52.134;5.052;2023-07-24T10:16:19;21.40;99.90
23116;DHT22;11727;52.134;5.052;2023-07-24T10:18:46;21.50;99.90
23116;DHT22;11727;52.134;5.052;2023-07-24T10:21:12;21.60;99.90
23116;DHT22;11727;52.134;5.052;2023-07-24T10:23:43;21.60;99.90
23116;DHT22;11727;52.134;5.052;2023-07-24T10:26:09;21.70;99.90
23116;DHT22;11727;52.134;5.052;2023-07-24T10:28:38;21.70;99.90
23116;DHT22;11727;52.134;5.052;2023-07-24T10:31:24;21.70;99.90
23116;DHT22;11727;52.134;5.052;2023-07-24T10:33:54;21.50;99.90
23116;DHT22;11727;52.134;5.052;2023-07-24T10:36:21;21.50;99.90
23116;DHT22;11727;52.134;5.052;2023-07-24T10:38:55;21.50;99.90
23116;DHT22;11727;52.134;5.052;2023-07-24T10:41:20;21.60;99.90
23116;DHT22;11727;52.134;5.052;2023-07-24T10:43:50;21.80;99.90
23116;DHT22;11727;52.134;5.052;2023-07-24T10:46:18;21.90;99.90
23116;DHT22;11727;52.134;5.052;2023-07-24T10:48:50;22.00;99.90
23116;DHT22;11727;52.134;5.052;2023-07-24T10:51:16;21.90;99.90
23116;DHT22;11727;52.134;5.052;2023-07-24T10:53:49;21.80;99.90
23116;DHT22;11727;52.134;5.052;2023-07-24T10:56:16;21.60;99.90
23116;DHT22;11727;52.134;5.052;2023-07-24T10:58:42;21.50;99.90
23116;DHT22;11727;52.134;5.052;2023-07-24T11:01:08;21.40;99.90
23116;DHT22;11727;52.134;5.052;2023-07-24T11:03:36;21.20;99.90
23116;DHT22;11727;52.134;5.052;2023-07-24T11:06:03;21.10;99.90
23116;DHT22;11727;52.134;5.052;2023-07-24T11:08:29;21.10;99.90
23116;DHT22;11727;52.134;5.052;2023-07-24T11:10:57;21.10;99.90
23116;DHT22;11727;52.134;5.052;2023-07-24T11:13:25;21.00;99.90
23116;DHT22;11727;52.134;5.052;2023-07-24T11:15:51;21.00;99.90
23116;DHT22;11727;52.134;5.052;2023-07-24T11:18:20;21.00;99.90
23116;DHT22;11727;52.134;5.052;2023-07-24T11:21:04;21.00;99.90
23116;DHT22;11727;52.134;5.052;2023-07-24T11:24:28;21.00;99.90
23116;DHT22;11727;52.134;5.052;2023-07-24T11:27:16;21.20;99.90
23116;DHT22;11727;52.134;5.052;2023-07-24T11:29:48;21.50;99.90
23116;DHT22;11727;52.134;5.052;2023-07-24T11:32:23;21.60;99.90
23116;DHT22;11727;52.134;5.052;2023-07-24T11:34:50;21.80;99.90
23116;DHT22;11727;52.134;5.052;2023-07-24T11:37:16;21.90;99.90
23116;DHT22;11727;52.134;5.052;2023-07-24T11:39:42;22.10;99.90
23116;DHT22;11727;52.134;5.052;2023-07-24T11:42:08;22.20;99.90
23116;DHT22;11727;52.134;5.052;2023-07-24T11:44:33;22.20;99.90
23116;DHT22;11727;52.134;5.052;2023-07-24T11:47:06;22.20;99.90
23116;DHT22;11727;52.134;5.052;2023-07-24T11:49:32;22.10;99.90
23116;DHT22;11727;52.134;5.052;2023-07-24T11:52:05;22.00;99.90
23116;DHT22;11727;52.134;5.052;2023-07-24T11:54:34;21.80;99.90
23116;DHT22;11727;52.134;5.052;2023-07-24T11:56:59;21.70;99.90
23116;DHT22;11727;52.134;5.052;2023-07-24T11:59:25;21.70;99.90
23116;DHT22;11727;52.134;5.052;2023-07-24T12:01:51;21.70;99.90
23116;DHT22;11727;52.134;5.052;2023-07-24T12:04:17;21.70;99.90
23116;DHT22;11727;52.134;5.052;2023-07-24T12:06:43;21.70;99.90
23116;DHT22;11727;52.134;5.052;2023-07-24T12:09:10;21.60;99.90
23116;DHT22;11727;52.134;5.052;2023-07-24T12:11:43;21.60;99.90
23116;DHT22;11727;52.134;5.052;2023-07-24T12:14:08;21.50;99.90
23116;DHT22;11727;52.134;5.052;2023-07-24T12:16:35;21.40;99.90
23116;DHT22;11727;52.134;5.052;2023-07-24T12:19:01;21.30;99.90
23116;DHT22;11727;52.134;5.052;2023-07-24T12:21:27;21.20;99.90
23116;DHT22;11727;52.134;5.052;2023-07-24T12:23:53;21.20;99.90
23116;DHT22;11727;52.134;5.052;2023-07-24T12:26:18;21.10;99.90
23116;DHT22;11727;52.134;5.052;2023-07-24T12:28:44;21.10;99.90
23116;DHT22;11727;52.134;5.052;2023-07-24T12:31:09;21.00;99.90
23116;DHT22;11727;52.134;5.052;2023-07-24T12:33:35;20.90;99.90
23116;DHT22;11727;52.134;5.052;2023-07-24T12:36:01;20.90;99.90
23116;DHT22;11727;52.134;5.052;2023-07-24T12:38:27;20.90;99.90
23116;DHT22;11727;52.134;5.052;2023-07-24T12:40:53;20.90;99.90
23116;DHT22;11727;52.134;5.052;2023-07-24T12:43:18;21.00;99.90
23116;DHT22;11727;52.134;5.052;2023-07-24T12:45:44;21.10;99.90
23116;DHT22;11727;52.134;5.052;2023-07-24T12:48:10;21.30;99.90
23116;DHT22;11727;52.134;5.052;2023-07-24T12:50:35;21.50;99.90
23116;DHT22;11727;52.134;5.052;2023-07-24T12:53:01;21.60;99.90
23116;DHT22;11727;52.134;5.052;2023-07-24T12:55:27;21.70;99.90
23116;DHT22;11727;52.134;5.052;2023-07-24T12:57:52;21.70;99.90
23116;DHT22;11727;52.134;5.052;2023-07-24T13:00:18;21.70;99.90
23116;DHT22;11727;52.134;5.052;2023-07-24T13:02:44;21.60;99.90
23116;DHT22;11727;52.134;5.052;2023-07-24T13:05:09;21.60;99.90
23116;DHT22;11727;52.134;5.052;2023-07-24T13:07:35;21.60;99.90
23116;DHT22;11727;52.134;5.052;2023-07-24T13:10:01;21.50;99.90
23116;DHT22;11727;52.134;5.052;2023-07-24T13:12:26;21.50;99.90
23116;DHT22;11727;52.134;5.052;2023-07-24T13:14:52;21.50;99.90
23116;DHT22;11727;52.134;5.052;2023-07-24T13:17:17;21.40;99.90
23116;DHT22;11727;52.134;5.052;2023-07-24T13:19:43;21.40;99.90
23116;DHT22;11727;52.134;5.052;2023-07-24T13:22:09;21.30;99.90
23116;DHT22;11727;52.134;5.052;2023-07-24T13:24:34;21.30;99.90
23116;DHT22;11727;52.134;5.052;2023-07-24T13:27:00;21.40;99.90
23116;DHT22;11727;52.134;5.052;2023-07-24T13:29:25;21.40;99.90
23116;DHT22;11727;52.134;5.052;2023-07-24T13:31:51;21.50;99.90
23116;DHT22;11727;52.134;5.052;2023-07-24T13:34:19;21.60;99.90
23116;DHT22;11727;52.134;5.052;2023-07-24T13:36:46;21.70;99.90
23116;DHT22;11727;52.134;5.052;2023-07-24T13:39:12;21.80;99.90
23116;DHT22;11727;52.134;5.052;2023-07-24T13:41:38;21.80;99.90
23116;DHT22;11727;52.134;5.052;2023-07-24T13:44:04;21.70;99.90
23116;DHT22;11727;52.134;5.052;2023-07-24T13:46:30;21.70;99.90
23116;DHT22;11727;52.134;5.052;2023-07-24T13:48:55;21.50;99.90
23116;DHT22;11727;52.134;5.052;2023-07-24T13:51:21;21.50;99.90
23116;DHT22;11727;52.134;5.052;2023-07-24T13:53:46;21.50;99.90
23116;DHT22;11727;52.134;5.052;2023-07-24T13:56:14;21.50;99.90
23116;DHT22;11727;52.134;5.052;2023-07-24T13:58:40;21.60;99.90
23116;DHT22;11727;52.134;5.052;2023-07-24T14:01:05;21.60;99.90
23116;DHT22;11727;52.134;5.052;2023-07-24T14:03:32;21.60;99.90
23116;DHT22;11727;52.134;5.052;2023-07-24T14:05:58;21.50;99.90
23116;DHT22;11727;52.134;5.052;2023-07-24T14:08:24;21.50;99.90
23116;DHT22;11727;52.134;5.052;2023-07-24T14:10:50;21.30;99.90
23116;DHT22;11727;52.134;5.052;2023-07-24T14:13:16;21.30;99.90
23116;DHT22;11727;52.134;5.052;2023-07-24T14:15:42;21.30;99.90
23116;DHT22;11727;52.134;5.052;2023-07-24T14:18:07;21.30;99.90
23116;DHT22;11727;52.134;5.052;2023-07-24T14:20:33;21.30;99.90
23116;DHT22;11727;52.134;5.052;2023-07-24T14:22:58;21.20;99.90
23116;DHT22;11727;52.134;5.052;2023-07-24T14:25:24;21.20;99.90
23116;DHT22;11727;52.134;5.052;2023-07-24T14:27:50;21.10;99.90
23116;DHT22;11727;52.134;5.052;2023-07-24T14:30:15;21.10;99.90
23116;DHT22;11727;52.134;5.052;2023-07-24T14:32:41;21.20;99.90
23116;DHT22;11727;52.134;5.052;2023-07-24T14:35:07;21.20;99.90
23116;DHT22;11727;52.134;5.052;2023-07-24T14:37:33;21.10;99.90
23116;DHT22;11727;52.134;5.052;2023-07-24T14:39:58;21.20;99.90
23116;DHT22;11727;52.134;5.052;2023-07-24T14:42:24;21.20;99.90
23116;DHT22;11727;52.134;5.052;2023-07-24T14:44:49;21.30;99.90
23116;DHT22;11727;52.134;5.052;2023-07-24T14:47:15;21.50;99.90
23116;DHT22;11727;52.134;5.052;2023-07-24T14:49:41;21.50;99.90
23116;DHT22;11727;52.134;5.052;2023-07-24T14:52:07;21.50;99.90
23116;DHT22;11727;52.134;5.052;2023-07-24T14:54:33;21.40;99.90
23116;DHT22;11727;52.134;5.052;2023-07-24T14:56:58;21.40;99.90
23116;DHT22;11727;52.134;5.052;2023-07-24T14:59:24;21.50;99.90
23116;DHT22;11727;52.134;5.052;2023-07-24T15:01:49;21.50;99.90
23116;DHT22;11727;52.134;5.052;2023-07-24T15:04:15;21.30;99.90
23116;DHT22;11727;52.134;5.052;2023-07-24T15:06:40;21.10;99.90
23116;DHT22;11727;52.134;5.052;2023-07-24T15:09:06;21.00;99.90
23116;DHT22;11727;52.134;5.052;2023-07-24T15:11:32;20.90;99.90
23116;DHT22;11727;52.134;5.052;2023-07-24T15:13:57;20.80;99.90
23116;DHT22;11727;52.134;5.052;2023-07-24T15:16:23;20.70;99.90
23116;DHT22;11727;52.134;5.052;2023-07-24T15:18:48;20.50;99.90
23116;DHT22;11727;52.134;5.052;2023-07-24T15:21:14;20.50;99.90
23116;DHT22;11727;52.134;5.052;2023-07-24T15:23:40;20.40;99.90
23116;DHT22;11727;52.134;5.052;2023-07-24T15:26:05;20.30;99.90
23116;DHT22;11727;52.134;5.052;2023-07-24T15:28:31;20.30;99.90